createdAt,value
2022-10-26T00:00:23.980Z,0.00
2022-10-26T00:01:24.467Z,0.00
2022-10-26T00:02:24.075Z,0.00
2022-10-26T00:03:24.028Z,0.00
2022-10-26T00:04:24.022Z,0.00
2022-10-26T00:05:24.153Z,0.00
2022-10-26T00:06:24.014Z,0.00
2022-10-26T00:07:23.901Z,0.00
2022-10-26T00:08:23.918Z,0.00
2022-10-26T00:09:24.725Z,0.00
2022-10-26T00:10:24.744Z,0.00
2022-10-26T00:11:23.870Z,0.00
2022-10-26T00:12:23.935Z,0.00
2022-10-26T00:13:23.843Z,0.00
2022-10-26T00:14:23.823Z,0.00
2022-10-26T00:15:23.817Z,0.00
2022-10-26T00:16:23.855Z,0.00
2022-10-26T00:17:24.976Z,0.00
2022-10-26T00:18:23.781Z,0.00
2022-10-26T00:19:23.764Z,0.00
2022-10-26T00:20:24.746Z,0.00
2022-10-26T00:21:23.762Z,0.00
2022-10-26T00:22:23.712Z,0.00
2022-10-26T00:23:23.837Z,0.00
2022-10-26T00:24:23.947Z,0.00
2022-10-26T00:25:23.688Z,0.00
2022-10-26T00:26:23.734Z,0.00
2022-10-26T00:27:24.536Z,0.00
2022-10-26T00:28:23.655Z,0.00
2022-10-26T00:29:23.654Z,0.00
2022-10-26T00:30:23.672Z,0.00
2022-10-26T00:31:23.647Z,0.00
2022-10-26T00:32:23.612Z,0.00
2022-10-26T00:33:23.625Z,0.00
2022-10-26T00:34:24.364Z,0.00
2022-10-26T00:35:41.030Z,0.00
2022-10-26T00:36:24.533Z,0.00
2022-10-26T00:37:23.546Z,0.00
2022-10-26T00:38:23.625Z,0.00
2022-10-26T00:39:23.506Z,0.00
2022-10-26T00:40:23.529Z,0.00
2022-10-26T00:41:23.886Z,0.00
2022-10-26T00:42:23.474Z,0.00
2022-10-26T00:43:23.579Z,0.00
2022-10-26T00:44:23.435Z,0.00
2022-10-26T00:45:23.395Z,0.00
2022-10-26T00:46:23.417Z,0.00
2022-10-26T00:47:23.410Z,0.00
2022-10-26T00:48:23.404Z,0.00
2022-10-26T00:49:23.418Z,0.00
2022-10-26T00:50:23.380Z,0.00
2022-10-26T00:51:23.338Z,0.00
2022-10-26T00:52:23.354Z,0.00
2022-10-26T00:53:23.566Z,0.00
2022-10-26T00:54:23.332Z,0.00
2022-10-26T00:55:23.302Z,0.00
2022-10-26T00:56:23.261Z,0.00
2022-10-26T00:57:23.329Z,0.00
2022-10-26T00:58:23.301Z,0.00
2022-10-26T00:59:23.271Z,0.00
2022-10-26T01:00:23.236Z,0.00
2022-10-26T01:01:23.259Z,0.00
2022-10-26T01:02:23.229Z,0.00
2022-10-26T01:03:23.264Z,0.00
2022-10-26T01:04:23.168Z,0.00
2022-10-26T01:05:23.270Z,0.00
2022-10-26T01:06:23.183Z,0.00
2022-10-26T01:07:23.218Z,0.00
2022-10-26T01:08:23.201Z,0.00
2022-10-26T01:09:23.131Z,0.00
2022-10-26T01:10:23.091Z,0.00
2022-10-26T01:11:23.110Z,0.00
2022-10-26T01:12:23.093Z,0.00
2022-10-26T01:13:23.114Z,0.00
2022-10-26T01:14:23.070Z,0.00
2022-10-26T01:15:23.214Z,0.00
2022-10-26T01:16:23.173Z,0.00
2022-10-26T01:17:23.053Z,0.00
2022-10-26T01:18:24.242Z,0.00
2022-10-26T01:19:23.002Z,0.00
2022-10-26T01:20:23.090Z,0.00
2022-10-26T01:21:22.952Z,0.00
2022-10-26T01:22:22.957Z,0.00
2022-10-26T01:23:22.969Z,0.00
2022-10-26T01:24:23.018Z,0.00
2022-10-26T01:25:22.950Z,0.00
2022-10-26T01:26:23.073Z,0.00
2022-10-26T01:27:22.976Z,0.00
2022-10-26T01:28:22.852Z,0.00
2022-10-26T01:29:22.934Z,0.00
2022-10-26T01:30:22.864Z,0.00
2022-10-26T01:31:22.883Z,0.00
2022-10-26T01:32:23.023Z,0.00
2022-10-26T01:33:23.823Z,0.00
2022-10-26T01:34:22.821Z,0.00
2022-10-26T01:35:23.636Z,0.00
2022-10-26T01:36:22.808Z,0.00
2022-10-26T01:37:22.744Z,0.00
2022-10-26T01:38:23.855Z,0.00
2022-10-26T01:39:22.749Z,0.00
2022-10-26T01:40:22.844Z,0.00
2022-10-26T01:41:22.715Z,0.00
2022-10-26T01:42:23.479Z,0.00
2022-10-26T01:43:22.694Z,0.00
2022-10-26T01:44:22.698Z,0.00
2022-10-26T01:45:22.786Z,0.00
2022-10-26T01:46:22.766Z,0.00
2022-10-26T01:47:22.885Z,0.00
2022-10-26T01:48:22.677Z,0.00
2022-10-26T01:49:22.602Z,0.00
2022-10-26T01:50:22.639Z,0.00
2022-10-26T01:51:22.700Z,0.00
2022-10-26T01:52:22.553Z,0.00
2022-10-26T01:53:23.430Z,0.00
2022-10-26T01:54:22.608Z,0.00
2022-10-26T01:55:22.667Z,0.00
2022-10-26T01:56:23.665Z,0.00
2022-10-26T01:57:22.501Z,0.00
2022-10-26T01:58:22.520Z,0.00
2022-10-26T01:59:23.380Z,0.00
2022-10-26T02:00:22.520Z,0.00
2022-10-26T02:01:22.519Z,0.00
2022-10-26T02:02:23.117Z,0.00
2022-10-26T02:03:23.555Z,0.00
2022-10-26T02:04:22.501Z,0.00
2022-10-26T02:05:23.370Z,0.00
2022-10-26T02:06:22.463Z,0.00
2022-10-26T02:07:22.423Z,0.00
2022-10-26T02:08:22.369Z,0.00
2022-10-26T02:09:22.393Z,0.00
2022-10-26T02:10:22.502Z,0.00
2022-10-26T02:11:22.438Z,0.00
2022-10-26T02:12:23.149Z,0.00
2022-10-26T02:13:22.302Z,0.00
2022-10-26T02:14:22.421Z,0.00
2022-10-26T02:15:23.382Z,0.00
2022-10-26T02:16:22.350Z,0.00
2022-10-26T02:17:22.286Z,0.00
2022-10-26T02:18:22.254Z,0.00
2022-10-26T02:19:22.246Z,0.00
2022-10-26T02:20:22.250Z,0.00
2022-10-26T02:21:22.221Z,0.00
2022-10-26T02:22:23.041Z,0.00
2022-10-26T02:23:22.174Z,0.00
2022-10-26T02:24:22.333Z,0.00
2022-10-26T02:25:22.134Z,0.00
2022-10-26T02:26:22.234Z,0.00
2022-10-26T02:27:22.154Z,0.00
2022-10-26T02:28:22.114Z,0.00
2022-10-26T02:29:22.190Z,0.00
2022-10-26T02:30:22.110Z,0.00
2022-10-26T02:31:22.137Z,0.00
2022-10-26T02:32:22.124Z,0.00
2022-10-26T02:33:22.832Z,0.00
2022-10-26T02:34:22.101Z,0.00
2022-10-26T02:35:22.997Z,0.00
2022-10-26T02:36:22.056Z,0.00
2022-10-26T02:37:23.454Z,0.00
2022-10-26T02:38:22.053Z,0.00
2022-10-26T02:39:21.953Z,0.00
2022-10-26T02:40:21.970Z,0.00
2022-10-26T02:41:21.954Z,0.00
2022-10-26T02:42:21.989Z,0.00
2022-10-26T02:43:22.158Z,0.00
2022-10-26T02:44:21.893Z,0.00
2022-10-26T02:45:21.886Z,0.00
2022-10-26T02:46:21.914Z,0.00
2022-10-26T02:47:21.921Z,0.00
2022-10-26T02:48:21.913Z,0.00
2022-10-26T02:49:22.087Z,0.00
2022-10-26T02:50:23.090Z,0.00
2022-10-26T02:51:21.856Z,0.00
2022-10-26T02:52:21.820Z,0.00
2022-10-26T02:53:21.797Z,0.00
2022-10-26T02:54:21.779Z,0.00
2022-10-26T02:55:21.784Z,0.00
2022-10-26T02:56:21.767Z,0.00
2022-10-26T02:57:21.756Z,0.00
2022-10-26T02:58:21.776Z,0.00
2022-10-26T02:59:21.889Z,0.00
2022-10-26T03:00:22.709Z,0.00
2022-10-26T03:01:21.861Z,0.00
2022-10-26T03:02:21.688Z,0.00
2022-10-26T03:03:22.098Z,0.00
2022-10-26T03:04:21.760Z,0.00
2022-10-26T03:05:21.670Z,0.00
2022-10-26T03:06:21.665Z,0.00
2022-10-26T03:07:22.100Z,0.00
2022-10-26T03:08:21.667Z,0.00
2022-10-26T03:09:23.534Z,0.00
2022-10-26T03:10:21.589Z,0.00
2022-10-26T03:11:21.606Z,0.00
2022-10-26T03:12:22.566Z,0.00
2022-10-26T03:13:22.414Z,0.00
2022-10-26T03:14:21.556Z,0.00
2022-10-26T03:15:21.608Z,0.00
2022-10-26T03:16:21.507Z,0.00
2022-10-26T03:17:21.509Z,0.00
2022-10-26T03:18:21.500Z,0.00
2022-10-26T03:19:22.313Z,0.00
2022-10-26T03:20:21.472Z,0.00
2022-10-26T03:21:21.420Z,0.00
2022-10-26T03:22:21.441Z,0.00
2022-10-26T03:23:21.459Z,0.00
2022-10-26T03:24:21.421Z,0.00
2022-10-26T03:25:21.391Z,0.00
2022-10-26T03:26:21.421Z,0.00
2022-10-26T03:27:21.392Z,0.00
2022-10-26T03:28:21.643Z,0.00
2022-10-26T03:29:21.391Z,0.00
2022-10-26T03:30:21.449Z,0.00
2022-10-26T03:31:22.225Z,0.00
2022-10-26T03:32:21.421Z,0.00
2022-10-26T03:33:24.429Z,0.00
2022-10-26T03:34:22.348Z,0.00
2022-10-26T03:35:21.254Z,0.00
2022-10-26T03:36:21.284Z,0.00
2022-10-26T03:37:21.462Z,0.00
2022-10-26T03:38:21.264Z,0.00
2022-10-26T03:39:21.228Z,0.00
2022-10-26T03:40:21.231Z,0.00
2022-10-26T03:41:22.283Z,0.00
2022-10-26T03:42:21.195Z,0.00
2022-10-26T03:43:21.182Z,0.00
2022-10-26T03:44:21.143Z,0.00
2022-10-26T03:45:21.286Z,0.00
2022-10-26T03:46:21.105Z,0.00
2022-10-26T03:47:21.128Z,0.00
2022-10-26T03:48:21.074Z,0.00
2022-10-26T03:49:21.081Z,0.00
2022-10-26T03:50:21.113Z,0.00
2022-10-26T03:51:21.097Z,0.00
2022-10-26T03:52:21.064Z,0.00
2022-10-26T03:53:21.352Z,0.00
2022-10-26T03:54:21.004Z,0.00
2022-10-26T03:55:20.987Z,0.00
2022-10-26T03:56:21.137Z,0.00
2022-10-26T03:57:20.964Z,0.00
2022-10-26T03:58:22.258Z,0.00
2022-10-26T03:59:20.967Z,0.00
2022-10-26T04:00:20.976Z,0.00
2022-10-26T04:01:20.945Z,0.00
2022-10-26T04:02:20.928Z,0.00
2022-10-26T04:03:21.758Z,0.00
2022-10-26T04:04:21.173Z,0.00
2022-10-26T04:05:21.054Z,0.00
2022-10-26T04:06:20.847Z,0.00
2022-10-26T04:07:20.857Z,0.00
2022-10-26T04:08:20.828Z,0.00
2022-10-26T04:09:20.804Z,0.00
2022-10-26T04:10:20.830Z,0.00
2022-10-26T04:11:20.828Z,0.00
2022-10-26T04:12:20.798Z,0.00
2022-10-26T04:13:20.761Z,0.00
2022-10-26T04:14:20.745Z,0.00
2022-10-26T04:15:20.968Z,0.00
2022-10-26T04:16:20.757Z,0.00
2022-10-26T04:17:20.760Z,0.00
2022-10-26T04:18:20.732Z,0.00
2022-10-26T04:19:20.688Z,0.00
2022-10-26T04:20:20.829Z,0.00
2022-10-26T04:21:20.910Z,0.00
2022-10-26T04:22:20.690Z,0.00
2022-10-26T04:23:20.763Z,0.00
2022-10-26T04:24:20.701Z,0.00
2022-10-26T04:25:20.609Z,0.00
2022-10-26T04:26:20.653Z,0.00
2022-10-26T04:27:20.582Z,0.00
2022-10-26T04:28:20.742Z,0.00
2022-10-26T04:29:20.580Z,0.00
2022-10-26T04:30:21.680Z,0.00
2022-10-26T04:31:20.669Z,0.00
2022-10-26T04:32:20.594Z,0.00
2022-10-26T04:33:20.603Z,0.00
2022-10-26T04:34:20.554Z,0.00
2022-10-26T04:35:20.508Z,0.00
2022-10-26T04:36:20.472Z,0.00
2022-10-26T04:37:21.522Z,0.00
2022-10-26T04:38:21.422Z,0.00
2022-10-26T04:39:20.722Z,0.00
2022-10-26T04:40:21.230Z,0.00
2022-10-26T04:41:21.342Z,0.00
2022-10-26T04:42:20.417Z,0.00
2022-10-26T04:43:21.445Z,0.00
2022-10-26T04:44:20.533Z,0.00
2022-10-26T04:45:20.426Z,0.00
2022-10-26T04:46:20.442Z,0.00
2022-10-26T04:47:21.587Z,0.00
2022-10-26T04:48:20.365Z,0.00
2022-10-26T04:49:20.361Z,0.00
2022-10-26T04:50:23.715Z,0.00
2022-10-26T04:51:21.314Z,0.00
2022-10-26T04:52:20.402Z,0.00
2022-10-26T04:53:20.580Z,0.00
2022-10-26T04:54:20.305Z,0.00
2022-10-26T04:55:20.332Z,0.00
2022-10-26T04:56:20.334Z,0.00
2022-10-26T04:57:20.233Z,0.00
2022-10-26T04:58:21.046Z,0.00
2022-10-26T04:59:20.411Z,0.00
2022-10-26T05:00:20.366Z,0.00
2022-10-26T05:01:20.250Z,0.00
2022-10-26T05:02:20.578Z,0.00
2022-10-26T05:03:20.385Z,0.00
2022-10-26T05:04:20.118Z,0.00
2022-10-26T05:05:20.413Z,0.00
2022-10-26T05:06:21.084Z,0.00
2022-10-26T05:07:20.106Z,0.00
2022-10-26T05:08:20.138Z,0.00
2022-10-26T05:09:20.148Z,0.00
2022-10-26T05:10:20.914Z,0.00
2022-10-26T05:11:20.029Z,0.00
2022-10-26T05:12:20.204Z,0.00
2022-10-26T05:13:20.541Z,0.00
2022-10-26T05:14:20.007Z,0.00
2022-10-26T05:15:20.945Z,0.00
2022-10-26T05:16:20.442Z,0.00
2022-10-26T05:17:19.977Z,0.00
2022-10-26T05:18:20.537Z,0.00
2022-10-26T05:19:20.901Z,0.00
2022-10-26T05:20:19.973Z,0.00
2022-10-26T05:21:20.021Z,0.00
2022-10-26T05:22:20.066Z,0.00
2022-10-26T05:23:19.869Z,0.00
2022-10-26T05:24:20.831Z,0.00
2022-10-26T05:25:21.006Z,0.00
2022-10-26T05:26:19.946Z,0.00
2022-10-26T05:27:19.821Z,0.00
2022-10-26T05:28:19.799Z,0.00
2022-10-26T05:29:19.941Z,0.00
2022-10-26T05:30:19.897Z,0.00
2022-10-26T05:31:19.867Z,0.00
2022-10-26T05:32:19.942Z,0.00
2022-10-26T05:33:19.797Z,0.00
2022-10-26T05:34:20.664Z,0.00
2022-10-26T05:35:19.749Z,0.00
2022-10-26T05:36:19.738Z,0.00
2022-10-26T05:37:19.709Z,0.00
2022-10-26T05:38:19.793Z,0.00
2022-10-26T05:39:20.688Z,0.00
2022-10-26T05:40:20.591Z,0.00
2022-10-26T05:41:19.842Z,0.00
2022-10-26T05:42:19.783Z,0.00
2022-10-26T05:43:19.652Z,0.00
2022-10-26T05:44:19.829Z,0.00
2022-10-26T05:45:19.607Z,0.00
2022-10-26T05:46:19.663Z,0.00
2022-10-26T05:47:19.712Z,0.00
2022-10-26T05:48:19.599Z,0.00
2022-10-26T05:49:19.666Z,0.00
2022-10-26T05:50:20.657Z,0.00
2022-10-26T05:51:19.540Z,0.00
2022-10-26T05:52:19.535Z,0.00
2022-10-26T05:53:19.943Z,5.62
2022-10-26T05:54:19.499Z,5.62
2022-10-26T05:55:19.472Z,5.62
2022-10-26T05:56:19.465Z,5.62
2022-10-26T05:57:20.421Z,5.62
2022-10-26T05:58:19.448Z,5.62
2022-10-26T05:59:20.295Z,5.62
2022-10-26T06:00:19.747Z,5.62
2022-10-26T06:01:19.572Z,5.62
2022-10-26T06:02:19.477Z,5.62
2022-10-26T06:03:19.417Z,5.62
2022-10-26T06:04:19.405Z,11.25
2022-10-26T06:05:19.356Z,11.25
2022-10-26T06:06:20.802Z,11.25
2022-10-26T06:07:19.316Z,11.25
2022-10-26T06:08:19.510Z,11.25
2022-10-26T06:09:19.346Z,11.25
2022-10-26T06:10:20.277Z,11.25
2022-10-26T06:11:19.585Z,16.88
2022-10-26T06:12:19.920Z,16.88
2022-10-26T06:13:19.321Z,16.88
2022-10-26T06:14:20.462Z,16.88
2022-10-26T06:15:20.349Z,16.88
2022-10-26T06:16:20.207Z,22.50
2022-10-26T06:17:19.366Z,22.50
2022-10-26T06:18:19.215Z,22.50
2022-10-26T06:19:19.369Z,22.50
2022-10-26T06:20:20.337Z,22.50
2022-10-26T06:21:19.366Z,28.12
2022-10-26T06:22:20.149Z,28.12
2022-10-26T06:23:19.161Z,28.12
2022-10-26T06:24:19.100Z,28.12
2022-10-26T06:25:19.077Z,33.75
2022-10-26T06:26:19.088Z,33.75
2022-10-26T06:27:20.180Z,33.75
2022-10-26T06:28:20.144Z,39.38
2022-10-26T06:29:19.579Z,39.38
2022-10-26T06:30:19.229Z,39.38
2022-10-26T06:31:19.036Z,45.00
2022-10-26T06:32:19.041Z,45.00
2022-10-26T06:33:28.997Z,45.00
2022-10-26T06:34:20.021Z,50.62
2022-10-26T06:35:19.080Z,50.62
2022-10-26T06:36:19.243Z,56.25
2022-10-26T06:37:19.037Z,56.25
2022-10-26T06:38:19.052Z,61.88
2022-10-26T06:39:18.956Z,61.88
2022-10-26T06:40:19.948Z,67.50
2022-10-26T06:41:19.471Z,67.50
2022-10-26T06:42:19.084Z,67.50
2022-10-26T06:43:18.942Z,73.12
2022-10-26T06:44:18.841Z,73.12
2022-10-26T06:45:18.824Z,73.12
2022-10-26T06:46:18.869Z,73.12
2022-10-26T06:47:21.294Z,73.12
2022-10-26T06:48:19.701Z,78.75
2022-10-26T06:49:19.680Z,78.75
2022-10-26T06:50:18.888Z,78.75
2022-10-26T06:51:18.811Z,78.75
2022-10-26T06:52:18.770Z,78.75
2022-10-26T06:53:19.722Z,78.75
2022-10-26T06:54:18.713Z,78.75
2022-10-26T06:55:18.851Z,78.75
2022-10-26T06:56:19.954Z,84.38
2022-10-26T06:57:18.683Z,84.38
2022-10-26T06:58:18.751Z,84.38
2022-10-26T06:59:19.641Z,90.00
2022-10-26T07:00:18.979Z,90.00
2022-10-26T07:01:18.936Z,90.00
2022-10-26T07:02:18.740Z,95.62
2022-10-26T07:03:18.625Z,95.62
2022-10-26T07:04:18.785Z,95.62
2022-10-26T07:05:18.594Z,95.62
2022-10-26T07:07:18.582Z,95.62
2022-10-26T07:08:18.603Z,95.62
2022-10-26T07:09:18.548Z,95.62
2022-10-26T07:10:18.537Z,95.62
2022-10-26T07:11:18.494Z,101.25
2022-10-26T07:12:18.490Z,95.62
2022-10-26T07:13:19.344Z,95.62
2022-10-26T07:14:18.467Z,95.62
2022-10-26T07:15:18.476Z,95.62
2022-10-26T07:16:18.454Z,101.25
2022-10-26T07:17:18.440Z,106.88
2022-10-26T07:18:18.476Z,106.88
2022-10-26T07:19:18.510Z,106.88
2022-10-26T07:20:18.446Z,101.25
2022-10-26T07:21:18.388Z,101.25
2022-10-26T07:22:18.370Z,101.25
2022-10-26T07:23:18.400Z,101.25
2022-10-26T07:24:18.359Z,101.25
2022-10-26T07:25:18.342Z,101.25
2022-10-26T07:26:18.344Z,106.88
2022-10-26T07:27:18.369Z,101.25
2022-10-26T07:28:18.319Z,101.25
2022-10-26T07:29:18.276Z,101.25
2022-10-26T07:30:18.286Z,101.25
2022-10-26T07:31:18.267Z,101.25
2022-10-26T07:32:18.261Z,101.25
2022-10-26T07:33:18.232Z,101.25
2022-10-26T07:34:18.531Z,95.62
2022-10-26T07:35:18.180Z,95.62
2022-10-26T07:36:18.198Z,95.62
2022-10-26T07:37:18.240Z,101.25
2022-10-26T07:38:18.250Z,101.25
2022-10-26T07:39:18.219Z,101.25
2022-10-26T07:40:18.158Z,101.25
2022-10-26T07:41:18.150Z,101.25
2022-10-26T07:42:18.161Z,106.88
2022-10-26T07:43:18.198Z,106.88
2022-10-26T07:44:18.132Z,112.50
2022-10-26T07:45:19.347Z,106.88
2022-10-26T07:46:18.043Z,106.88
2022-10-26T07:47:18.109Z,112.50
2022-10-26T07:48:18.118Z,112.50
2022-10-26T07:49:19.547Z,112.50
2022-10-26T07:50:18.023Z,118.12
2022-10-26T07:51:18.012Z,123.75
2022-10-26T07:52:18.983Z,123.75
2022-10-26T07:53:20.492Z,123.75
2022-10-26T07:54:18.041Z,123.75
2022-10-26T07:55:17.929Z,129.38
2022-10-26T07:56:17.930Z,129.38
2022-10-26T07:57:17.936Z,129.38
2022-10-26T07:58:17.995Z,129.38
2022-10-26T07:59:19.013Z,129.38
2022-10-26T08:00:17.894Z,129.38
2022-10-26T08:01:17.948Z,129.38
2022-10-26T08:02:17.889Z,129.38
2022-10-26T08:03:17.941Z,129.38
2022-10-26T08:04:18.861Z,129.38
2022-10-26T08:05:18.064Z,135.00
2022-10-26T08:06:17.918Z,135.00
2022-10-26T08:07:17.901Z,135.00
2022-10-26T08:08:17.806Z,135.00
2022-10-26T08:09:17.763Z,135.00
2022-10-26T08:10:18.994Z,135.00
2022-10-26T08:11:17.765Z,135.00
2022-10-26T08:12:17.818Z,135.00
2022-10-26T08:13:17.728Z,140.62
2022-10-26T08:14:18.613Z,140.62
2022-10-26T08:15:17.700Z,140.62
2022-10-26T08:16:17.775Z,140.62
2022-10-26T08:17:17.702Z,140.62
2022-10-26T08:18:17.660Z,140.62
2022-10-26T08:19:17.645Z,140.62
2022-10-26T08:20:17.644Z,140.62
2022-10-26T08:21:21.620Z,140.62
2022-10-26T08:22:18.612Z,140.62
2022-10-26T08:23:17.626Z,146.25
2022-10-26T08:24:17.574Z,146.25
2022-10-26T08:25:20.506Z,146.25
2022-10-26T08:26:17.527Z,146.25
2022-10-26T08:27:17.536Z,140.62
2022-10-26T08:28:17.567Z,146.25
2022-10-26T08:29:17.553Z,151.88
2022-10-26T08:30:17.549Z,151.88
2022-10-26T08:31:17.474Z,151.88
2022-10-26T08:32:17.463Z,151.88
2022-10-26T08:33:17.437Z,151.88
2022-10-26T08:34:17.465Z,151.88
2022-10-26T08:35:17.410Z,151.88
2022-10-26T08:36:17.546Z,151.88
2022-10-26T08:37:17.407Z,151.88
2022-10-26T08:38:18.353Z,151.88
2022-10-26T08:39:18.255Z,151.88
2022-10-26T08:40:17.351Z,151.88
2022-10-26T08:41:17.339Z,151.88
2022-10-26T08:42:17.346Z,157.50
2022-10-26T08:43:17.378Z,157.50
2022-10-26T08:44:17.331Z,157.50
2022-10-26T08:45:17.290Z,151.88
2022-10-26T08:46:17.271Z,157.50
2022-10-26T08:48:17.251Z,157.50
2022-10-26T08:49:17.252Z,157.50
2022-10-26T08:50:17.262Z,157.50
2022-10-26T08:51:18.131Z,157.50
2022-10-26T08:52:17.265Z,163.12
2022-10-26T08:53:17.235Z,163.12
2022-10-26T08:54:17.191Z,168.75
2022-10-26T08:55:18.254Z,168.75
2022-10-26T08:56:17.317Z,168.75
2022-10-26T08:57:17.217Z,174.38
2022-10-26T08:58:17.370Z,174.38
2022-10-26T08:59:17.105Z,180.00
2022-10-26T09:00:17.126Z,185.62
2022-10-26T09:01:17.393Z,185.62
2022-10-26T09:02:17.063Z,191.25
2022-10-26T09:03:17.161Z,196.88
2022-10-26T09:04:17.069Z,202.50
2022-10-26T09:05:17.038Z,208.12
2022-10-26T09:06:17.034Z,219.38
2022-10-26T09:07:17.009Z,219.38
2022-10-26T09:08:18.033Z,225.00
2022-10-26T09:09:17.018Z,230.62
2022-10-26T09:10:17.013Z,241.88
2022-10-26T09:11:16.946Z,241.88
2022-10-26T09:12:16.961Z,241.88
2022-10-26T09:13:17.002Z,241.88
2022-10-26T09:14:16.972Z,241.88
2022-10-26T09:15:16.898Z,241.88
2022-10-26T09:16:16.887Z,241.88
2022-10-26T09:17:16.892Z,247.50
2022-10-26T09:18:18.090Z,253.12
2022-10-26T09:19:16.887Z,258.75
2022-10-26T09:20:16.855Z,270.00
2022-10-26T09:21:17.805Z,275.62
2022-10-26T09:22:16.804Z,286.88
2022-10-26T09:23:16.837Z,298.12
2022-10-26T09:24:16.795Z,309.38
2022-10-26T09:25:16.788Z,320.62
2022-10-26T09:26:16.790Z,320.62
2022-10-26T09:27:16.758Z,326.25
2022-10-26T09:28:16.862Z,326.25
2022-10-26T09:29:17.547Z,326.25
2022-10-26T09:30:16.799Z,326.25
2022-10-26T09:31:16.788Z,326.25
2022-10-26T09:32:16.750Z,326.25
2022-10-26T09:33:16.687Z,326.25
2022-10-26T09:34:17.577Z,320.62
2022-10-26T09:35:17.019Z,315.00
2022-10-26T09:36:17.117Z,303.75
2022-10-26T09:37:16.610Z,298.12
2022-10-26T09:38:16.609Z,286.88
2022-10-26T09:39:17.612Z,275.62
2022-10-26T09:40:16.713Z,264.38
2022-10-26T09:41:16.633Z,247.50
2022-10-26T09:42:16.575Z,236.25
2022-10-26T09:43:16.581Z,225.00
2022-10-26T09:44:16.614Z,219.38
2022-10-26T09:45:16.545Z,213.75
2022-10-26T09:46:16.497Z,213.75
2022-10-26T09:47:16.490Z,213.75
2022-10-26T09:48:16.473Z,213.75
2022-10-26T09:49:16.492Z,208.12
2022-10-26T09:50:16.477Z,213.75
2022-10-26T09:51:16.471Z,213.75
2022-10-26T09:52:17.413Z,208.12
2022-10-26T09:53:16.714Z,202.50
2022-10-26T09:54:16.462Z,202.50
2022-10-26T09:55:16.374Z,196.88
2022-10-26T09:56:16.357Z,196.88
2022-10-26T09:57:16.386Z,196.88
2022-10-26T09:58:16.346Z,202.50
2022-10-26T09:59:17.228Z,213.75
2022-10-26T10:00:16.342Z,225.00
2022-10-26T10:01:16.415Z,241.88
2022-10-26T10:02:16.288Z,247.50
2022-10-26T10:03:16.311Z,264.38
2022-10-26T10:04:16.284Z,275.62
2022-10-26T10:05:23.143Z,281.25
2022-10-26T10:06:17.240Z,286.88
2022-10-26T10:07:16.852Z,292.50
2022-10-26T10:08:16.223Z,292.50
2022-10-26T10:09:16.229Z,292.50
2022-10-26T10:10:16.256Z,298.12
2022-10-26T10:11:16.328Z,298.12
2022-10-26T10:12:16.179Z,303.75
2022-10-26T10:13:16.157Z,309.38
2022-10-26T10:14:16.163Z,320.62
2022-10-26T10:15:16.141Z,320.62
2022-10-26T10:16:16.208Z,320.62
2022-10-26T10:18:16.143Z,309.38
2022-10-26T10:19:16.532Z,298.12
2022-10-26T10:20:16.048Z,281.25
2022-10-26T10:21:16.303Z,264.38
2022-10-26T10:22:16.050Z,253.12
2022-10-26T10:23:16.039Z,247.50
2022-10-26T10:24:15.997Z,236.25
2022-10-26T10:25:16.802Z,236.25
2022-10-26T10:26:15.984Z,236.25
2022-10-26T10:27:15.994Z,247.50
2022-10-26T10:28:15.995Z,247.50
2022-10-26T10:29:15.942Z,241.88
2022-10-26T10:30:16.031Z,241.88
2022-10-26T10:32:16.004Z,225.00
2022-10-26T10:33:15.990Z,213.75
2022-10-26T10:34:15.959Z,208.12
2022-10-26T10:35:15.857Z,196.88
2022-10-26T10:36:15.879Z,191.25
2022-10-26T10:37:15.864Z,196.88
2022-10-26T10:38:15.825Z,185.62
2022-10-26T10:39:15.956Z,185.62
2022-10-26T10:40:18.756Z,180.00
2022-10-26T10:41:15.816Z,180.00
2022-10-26T10:42:15.778Z,174.38
2022-10-26T10:43:15.801Z,168.75
2022-10-26T10:44:15.731Z,163.12
2022-10-26T10:45:15.716Z,157.50
2022-10-26T10:46:15.745Z,157.50
2022-10-26T10:47:15.747Z,151.88
2022-10-26T10:48:15.720Z,151.88
2022-10-26T10:49:15.682Z,157.50
2022-10-26T10:50:16.936Z,168.75
2022-10-26T10:51:15.722Z,174.38
2022-10-26T10:52:15.653Z,180.00
2022-10-26T10:53:15.638Z,180.00
2022-10-26T10:54:15.618Z,174.38
2022-10-26T10:55:16.126Z,174.38
2022-10-26T10:56:16.368Z,174.38
2022-10-26T10:57:16.098Z,168.75
2022-10-26T10:58:15.575Z,168.75
2022-10-26T10:59:15.626Z,168.75
2022-10-26T11:00:16.112Z,157.50
2022-10-26T11:01:16.426Z,157.50
2022-10-26T11:02:15.725Z,157.50
2022-10-26T11:03:15.753Z,163.12
2022-10-26T11:05:15.681Z,168.75
2022-10-26T11:06:15.461Z,168.75
2022-10-26T11:07:15.462Z,168.75
2022-10-26T11:08:15.514Z,163.12
2022-10-26T11:09:15.535Z,163.12
2022-10-26T11:10:15.544Z,163.12
2022-10-26T11:11:15.422Z,163.12
2022-10-26T11:12:15.423Z,163.12
2022-10-26T11:13:15.378Z,163.12
2022-10-26T11:14:15.386Z,163.12
2022-10-26T11:15:16.599Z,163.12
2022-10-26T11:16:15.331Z,168.75
2022-10-26T11:17:15.314Z,168.75
2022-10-26T11:18:15.473Z,180.00
2022-10-26T11:19:15.307Z,191.25
2022-10-26T11:20:15.337Z,202.50
2022-10-26T11:21:15.399Z,213.75
2022-10-26T11:22:15.705Z,225.00
2022-10-26T11:23:15.296Z,236.25
2022-10-26T11:24:15.251Z,247.50
2022-10-26T11:25:15.228Z,247.50
2022-10-26T11:26:15.215Z,253.12
2022-10-26T11:27:15.215Z,247.50
2022-10-26T11:28:15.292Z,247.50
2022-10-26T11:29:15.153Z,253.12
2022-10-26T11:30:15.336Z,258.75
2022-10-26T11:31:15.148Z,270.00
2022-10-26T11:32:15.160Z,281.25
2022-10-26T11:33:15.130Z,292.50
2022-10-26T11:34:15.150Z,303.75
2022-10-26T11:35:15.228Z,309.38
2022-10-26T11:36:17.292Z,320.62
2022-10-26T11:37:15.068Z,326.25
2022-10-26T11:38:18.099Z,331.88
2022-10-26T11:39:16.031Z,326.25
2022-10-26T11:40:15.029Z,331.88
2022-10-26T11:41:15.034Z,326.25
2022-10-26T11:42:15.033Z,326.25
2022-10-26T11:43:15.047Z,326.25
2022-10-26T11:44:14.987Z,326.25
2022-10-26T11:45:14.957Z,326.25
2022-10-26T11:46:18.136Z,331.88
2022-10-26T11:47:14.950Z,331.88
2022-10-26T11:48:14.918Z,331.88
2022-10-26T11:49:15.904Z,331.88
2022-10-26T11:50:17.377Z,337.50
2022-10-26T11:51:14.875Z,337.50
2022-10-26T11:52:14.863Z,337.50
2022-10-26T11:53:14.836Z,343.12
2022-10-26T11:54:14.972Z,348.75
2022-10-26T11:55:14.827Z,348.75
2022-10-26T11:56:14.837Z,354.38
2022-10-26T11:57:14.818Z,354.38
2022-10-26T11:58:14.796Z,354.38
2022-10-26T11:59:14.838Z,354.38
2022-10-26T12:00:14.737Z,348.75
2022-10-26T12:01:14.759Z,348.75
2022-10-26T12:02:14.753Z,348.75
2022-10-26T12:03:14.710Z,348.75
2022-10-26T12:04:14.817Z,354.38
2022-10-26T12:05:14.692Z,354.38
2022-10-26T12:06:14.732Z,360.00
2022-10-26T12:07:14.668Z,360.00
2022-10-26T12:08:14.648Z,360.00
2022-10-26T12:09:14.666Z,360.00
2022-10-26T12:10:14.679Z,360.00
2022-10-26T12:11:14.603Z,360.00
2022-10-26T12:12:14.593Z,360.00
2022-10-26T12:13:14.636Z,360.00
2022-10-26T12:14:15.442Z,354.38
2022-10-26T12:15:14.541Z,354.38
2022-10-26T12:16:14.562Z,348.75
2022-10-26T12:17:14.545Z,348.75
2022-10-26T12:18:14.614Z,348.75
2022-10-26T12:19:14.729Z,348.75
2022-10-26T12:20:14.610Z,343.12
2022-10-26T12:21:14.485Z,343.12
2022-10-26T12:22:14.535Z,348.75
2022-10-26T12:23:23.130Z,354.38
2022-10-26T12:24:15.473Z,354.38
2022-10-26T12:25:15.369Z,354.38
2022-10-26T12:26:14.456Z,354.38
2022-10-26T12:27:14.470Z,348.75
2022-10-26T12:28:14.449Z,348.75
2022-10-26T12:29:14.446Z,348.75
2022-10-26T12:30:14.384Z,354.38
2022-10-26T12:31:14.348Z,360.00
2022-10-26T12:32:14.726Z,365.62
2022-10-26T12:33:14.334Z,371.25
2022-10-26T12:34:14.358Z,382.50
2022-10-26T12:35:14.416Z,388.12
2022-10-26T12:36:14.286Z,388.12
2022-10-26T12:37:14.279Z,388.12
2022-10-26T12:38:14.468Z,393.75
2022-10-26T12:39:14.232Z,393.75
2022-10-26T12:40:14.301Z,399.38
2022-10-26T12:41:14.250Z,388.12
2022-10-26T12:42:14.212Z,376.88
2022-10-26T12:43:14.220Z,365.62
2022-10-26T12:44:14.216Z,360.00
2022-10-26T12:45:14.264Z,354.38
2022-10-26T12:46:14.148Z,337.50
2022-10-26T12:47:14.180Z,320.62
2022-10-26T12:48:27.596Z,303.75
2022-10-26T12:49:15.151Z,286.88
2022-10-26T12:50:15.167Z,281.25
2022-10-26T12:51:14.114Z,281.25
2022-10-26T12:52:14.577Z,275.62
2022-10-26T12:53:14.117Z,275.62
2022-10-26T12:54:14.053Z,270.00
2022-10-26T12:55:14.034Z,264.38
2022-10-26T12:56:14.094Z,264.38
2022-10-26T12:57:14.054Z,270.00
2022-10-26T12:58:14.005Z,281.25